sensor_id;sensor_type;location;lat;lon;timestamp;temperature;humidity
11009;DHT22;5557;51.670;7.788;2023-12-28T00:02:18;9.00;26.20
11009;DHT22;5557;51.670;7.788;2023-12-28T00:04:45;9.00;26.00
11009;DHT22;5557;51.670;7.788;2023-12-28T00:07:12;9.00;25.80
11009;DHT22;5557;51.670;7.788;2023-12-28T00:09:40;9.10;26.50
11009;DHT22;5557;51.670;7.788;2023-12-28T00:12:07;9.00;30.70
11009;DHT22;5557;51.670;7.788;2023-12-28T00:14:34;9.00;30.90
11009;DHT22;5557;51.670;7.788;2023-12-28T00:17:01;8.90;35.90
11009;DHT22;5557;51.670;7.788;2023-12-28T00:19:28;8.80;38.40
11009;DHT22;5557;51.670;7.788;2023-12-28T00:21:55;8.80;41.10
11009;DHT22;5557;51.670;7.788;2023-12-28T00:24:22;8.70;42.10
11009;DHT22;5557;51.670;7.788;2023-12-28T00:26:50;8.70;44.90
11009;DHT22;5557;51.670;7.788;2023-12-28T00:29:16;8.60;45.90
11009;DHT22;5557;51.670;7.788;2023-12-28T00:31:44;8.60;47.20
11009;DHT22;5557;51.670;7.788;2023-12-28T00:34:12;8.60;47.50
11009;DHT22;5557;51.670;7.788;2023-12-28T00:36:39;8.60;48.80
11009;DHT22;5557;51.670;7.788;2023-12-28T00:39:07;8.60;52.50
11009;DHT22;5557;51.670;7.788;2023-12-28T00:41:35;8.60;56.40
11009;DHT22;5557;51.670;7.788;2023-12-28T00:44:02;8.60;58.50
11009;DHT22;5557;51.670;7.788;2023-12-28T00:46:29;8.50;62.30
11009;DHT22;5557;51.670;7.788;2023-12-28T00:48:56;8.50;66.00
11009;DHT22;5557;51.670;7.788;2023-12-28T00:51:23;8.50;68.30
11009;DHT22;5557;51.670;7.788;2023-12-28T00:53:50;8.40;71.50
11009;DHT22;5557;51.670;7.788;2023-12-28T00:56:17;8.40;73.10
11009;DHT22;5557;51.670;7.788;2023-12-28T00:58:44;8.40;76.10
11009;DHT22;5557;51.670;7.788;2023-12-28T01:01:11;8.40;76.00
11009;DHT22;5557;51.670;7.788;2023-12-28T01:03:39;8.40;76.30
11009;DHT22;5557;51.670;7.788;2023-12-28T01:06:06;8.30;78.00
11009;DHT22;5557;51.670;7.788;2023-12-28T01:08:33;8.30;76.40
11009;DHT22;5557;51.670;7.788;2023-12-28T01:11:01;8.30;76.10
11009;DHT22;5557;51.670;7.788;2023-12-28T01:13:29;8.30;75.70
11009;DHT22;5557;51.670;7.788;2023-12-28T01:15:58;8.30;76.60
11009;DHT22;5557;51.670;7.788;2023-12-28T01:18:25;8.20;78.30
11009;DHT22;5557;51.670;7.788;2023-12-28T01:20:53;8.20;81.00
11009;DHT22;5557;51.670;7.788;2023-12-28T01:23:20;8.20;82.70
11009;DHT22;5557;51.670;7.788;2023-12-28T01:25:47;8.20;84.20
11009;DHT22;5557;51.670;7.788;2023-12-28T01:28:14;8.30;85.00
11009;DHT22;5557;51.670;7.788;2023-12-28T01:30:41;8.30;84.80
11009;DHT22;5557;51.670;7.788;2023-12-28T01:33:11;8.30;83.50
11009;DHT22;5557;51.670;7.788;2023-12-28T01:35:39;8.30;83.70
11009;DHT22;5557;51.670;7.788;2023-12-28T01:38:06;8.30;85.20
11009;DHT22;5557;51.670;7.788;2023-12-28T01:40:33;8.40;85.10
11009;DHT22;5557;51.670;7.788;2023-12-28T01:43:00;8.40;82.10
11009;DHT22;5557;51.670;7.788;2023-12-28T01:45:27;8.40;81.10
11009;DHT22;5557;51.670;7.788;2023-12-28T01:47:56;8.40;80.40
11009;DHT22;5557;51.670;7.788;2023-12-28T01:50:26;8.50;78.50
11009;DHT22;5557;51.670;7.788;2023-12-28T01:52:55;8.50;76.90
11009;DHT22;5557;51.670;7.788;2023-12-28T01:55:23;8.50;77.10
11009;DHT22;5557;51.670;7.788;2023-12-28T01:57:50;8.40;77.50
11009;DHT22;5557;51.670;7.788;2023-12-28T02:00:17;8.40;77.50
11009;DHT22;5557;51.670;7.788;2023-12-28T02:02:45;8.40;76.60
11009;DHT22;5557;51.670;7.788;2023-12-28T02:05:12;8.40;75.80
11009;DHT22;5557;51.670;7.788;2023-12-28T02:07:40;8.40;76.10
11009;DHT22;5557;51.670;7.788;2023-12-28T02:10:07;8.40;75.90
11009;DHT22;5557;51.670;7.788;2023-12-28T02:12:34;8.40;75.30
11009;DHT22;5557;51.670;7.788;2023-12-28T02:15:02;8.40;76.10
11009;DHT22;5557;51.670;7.788;2023-12-28T02:17:44;8.50;76.00
11009;DHT22;5557;51.670;7.788;2023-12-28T02:20:13;8.50;75.80
11009;DHT22;5557;51.670;7.788;2023-12-28T02:22:41;8.50;74.40
11009;DHT22;5557;51.670;7.788;2023-12-28T02:25:09;8.60;71.70
11009;DHT22;5557;51.670;7.788;2023-12-28T02:27:44;8.70;69.90
11009;DHT22;5557;51.670;7.788;2023-12-28T02:30:18;8.70;68.20
11009;DHT22;5557;51.670;7.788;2023-12-28T02:35:52;8.70;66.70
11009;DHT22;5557;51.670;7.788;2023-12-28T02:38:23;8.70;67.70
11009;DHT22;5557;51.670;7.788;2023-12-28T02:40:51;8.80;66.70
11009;DHT22;5557;51.670;7.788;2023-12-28T02:43:20;8.80;66.20
11009;DHT22;5557;51.670;7.788;2023-12-28T02:45:47;8.80;65.10
11009;DHT22;5557;51.670;7.788;2023-12-28T02:48:14;8.80;65.20
11009;DHT22;5557;51.670;7.788;2023-12-28T02:50:41;8.80;65.40
11009;DHT22;5557;51.670;7.788;2023-12-28T02:53:08;8.80;66.10
11009;DHT22;5557;51.670;7.788;2023-12-28T02:55:35;8.80;65.60
11009;DHT22;5557;51.670;7.788;2023-12-28T02:58:02;8.80;65.90
11009;DHT22;5557;51.670;7.788;2023-12-28T03:00:30;8.80;64.50
11009;DHT22;5557;51.670;7.788;2023-12-28T03:02:57;8.80;65.00
11009;DHT22;5557;51.670;7.788;2023-12-28T03:05:24;8.80;64.40
11009;DHT22;5557;51.670;7.788;2023-12-28T03:07:51;8.90;64.70
11009;DHT22;5557;51.670;7.788;2023-12-28T03:10:18;8.80;65.40
11009;DHT22;5557;51.670;7.788;2023-12-28T03:12:45;8.90;65.00
11009;DHT22;5557;51.670;7.788;2023-12-28T03:15:13;8.90;64.10
11009;DHT22;5557;51.670;7.788;2023-12-28T03:17:40;9.00;62.50
11009;DHT22;5557;51.670;7.788;2023-12-28T03:20:08;9.00;61.40
11009;DHT22;5557;51.670;7.788;2023-12-28T03:22:36;9.00;60.70
11009;DHT22;5557;51.670;7.788;2023-12-28T03:25:03;9.00;59.20
11009;DHT22;5557;51.670;7.788;2023-12-28T03:27:30;9.00;58.70
11009;DHT22;5557;51.670;7.788;2023-12-28T03:29:57;9.00;58.20
11009;DHT22;5557;51.670;7.788;2023-12-28T03:32:25;9.10;57.90
11009;DHT22;5557;51.670;7.788;2023-12-28T03:34:52;9.00;58.80
11009;DHT22;5557;51.670;7.788;2023-12-28T03:37:19;9.00;58.80
11009;DHT22;5557;51.670;7.788;2023-12-28T03:39:46;9.10;56.80
11009;DHT22;5557;51.670;7.788;2023-12-28T03:42:14;9.10;56.40
11009;DHT22;5557;51.670;7.788;2023-12-28T03:44:41;9.00;56.50
11009;DHT22;5557;51.670;7.788;2023-12-28T03:47:09;9.10;55.80
11009;DHT22;5557;51.670;7.788;2023-12-28T03:49:36;9.10;55.90
11009;DHT22;5557;51.670;7.788;2023-12-28T03:52:04;9.10;54.20
11009;DHT22;5557;51.670;7.788;2023-12-28T03:54:32;9.10;54.20
11009;DHT22;5557;51.670;7.788;2023-12-28T03:56:59;9.00;54.40
11009;DHT22;5557;51.670;7.788;2023-12-28T03:59:26;9.00;56.10
11009;DHT22;5557;51.670;7.788;2023-12-28T04:01:54;9.00;56.10
11009;DHT22;5557;51.670;7.788;2023-12-28T04:04:22;9.00;55.80
11009;DHT22;5557;51.670;7.788;2023-12-28T04:06:49;9.00;55.20
11009;DHT22;5557;51.670;7.788;2023-12-28T04:09:16;9.10;54.10
11009;DHT22;5557;51.670;7.788;2023-12-28T04:11:44;9.10;52.20
11009;DHT22;5557;51.670;7.788;2023-12-28T04:14:13;9.00;53.60
11009;DHT22;5557;51.670;7.788;2023-12-28T04:16:41;9.00;54.70
11009;DHT22;5557;51.670;7.788;2023-12-28T04:19:08;9.00;55.00
11009;DHT22;5557;51.670;7.788;2023-12-28T04:21:35;9.00;54.60
11009;DHT22;5557;51.670;7.788;2023-12-28T04:24:03;9.00;55.50
11009;DHT22;5557;51.670;7.788;2023-12-28T04:26:30;9.00;55.10
11009;DHT22;5557;51.670;7.788;2023-12-28T04:28:57;9.00;54.90
11009;DHT22;5557;51.670;7.788;2023-12-28T04:31:25;9.10;53.40
11009;DHT22;5557;51.670;7.788;2023-12-28T04:33:53;9.10;51.50
11009;DHT22;5557;51.670;7.788;2023-12-28T04:36:20;9.10;51.10
11009;DHT22;5557;51.670;7.788;2023-12-28T04:38:47;9.10;50.40
11009;DHT22;5557;51.670;7.788;2023-12-28T04:41:16;9.10;49.40
11009;DHT22;5557;51.670;7.788;2023-12-28T04:43:45;9.10;49.10
11009;DHT22;5557;51.670;7.788;2023-12-28T04:46:12;9.10;49.40
11009;DHT22;5557;51.670;7.788;2023-12-28T04:48:40;9.10;48.50
11009;DHT22;5557;51.670;7.788;2023-12-28T04:51:09;9.20;47.60
11009;DHT22;5557;51.670;7.788;2023-12-28T04:53:36;9.10;47.80
11009;DHT22;5557;51.670;7.788;2023-12-28T04:56:06;9.10;48.70
11009;DHT22;5557;51.670;7.788;2023-12-28T04:58:33;9.10;48.80
11009;DHT22;5557;51.670;7.788;2023-12-28T05:01:02;9.10;48.40
11009;DHT22;5557;51.670;7.788;2023-12-28T05:03:30;9.10;48.30
11009;DHT22;5557;51.670;7.788;2023-12-28T05:06:02;9.20;47.80
11009;DHT22;5557;51.670;7.788;2023-12-28T05:08:30;9.30;44.90
11009;DHT22;5557;51.670;7.788;2023-12-28T05:10:58;9.40;42.60
11009;DHT22;5557;51.670;7.788;2023-12-28T05:13:27;9.40;40.90
11009;DHT22;5557;51.670;7.788;2023-12-28T05:15:55;9.50;39.70
11009;DHT22;5557;51.670;7.788;2023-12-28T05:18:23;9.50;38.80
11009;DHT22;5557;51.670;7.788;2023-12-28T05:20:51;9.50;38.10
11009;DHT22;5557;51.670;7.788;2023-12-28T05:23:19;9.50;37.70
11009;DHT22;5557;51.670;7.788;2023-12-28T05:25:47;9.50;37.50
11009;DHT22;5557;51.670;7.788;2023-12-28T05:28:15;9.50;36.50
11009;DHT22;5557;51.670;7.788;2023-12-28T05:33:15;9.50;35.30
11009;DHT22;5557;51.670;7.788;2023-12-28T05:35:43;9.50;34.90
11009;DHT22;5557;51.670;7.788;2023-12-28T05:38:10;9.50;35.30
11009;DHT22;5557;51.670;7.788;2023-12-28T05:40:39;9.50;35.80
11009;DHT22;5557;51.670;7.788;2023-12-28T05:43:07;9.40;36.50
11009;DHT22;5557;51.670;7.788;2023-12-28T05:45:37;9.40;36.30
11009;DHT22;5557;51.670;7.788;2023-12-28T05:48:05;9.50;34.80
11009;DHT22;5557;51.670;7.788;2023-12-28T05:50:34;9.50;34.30
11009;DHT22;5557;51.670;7.788;2023-12-28T05:53:03;9.50;33.80
11009;DHT22;5557;51.670;7.788;2023-12-28T05:55:32;9.50;33.30
11009;DHT22;5557;51.670;7.788;2023-12-28T05:58:00;9.50;33.00
11009;DHT22;5557;51.670;7.788;2023-12-28T06:00:28;9.50;32.90
11009;DHT22;5557;51.670;7.788;2023-12-28T06:02:58;9.50;31.80
11009;DHT22;5557;51.670;7.788;2023-12-28T06:05:27;9.50;31.00
11009;DHT22;5557;51.670;7.788;2023-12-28T06:07:54;9.50;29.90
11009;DHT22;5557;51.670;7.788;2023-12-28T06:10:23;9.50;29.70
11009;DHT22;5557;51.670;7.788;2023-12-28T06:12:51;9.60;28.40
11009;DHT22;5557;51.670;7.788;2023-12-28T06:15:19;9.60;29.50
11009;DHT22;5557;51.670;7.788;2023-12-28T06:17:47;9.60;28.10
11009;DHT22;5557;51.670;7.788;2023-12-28T06:20:14;9.60;26.80
11009;DHT22;5557;51.670;7.788;2023-12-28T06:22:42;9.60;26.50
11009;DHT22;5557;51.670;7.788;2023-12-28T06:25:11;9.60;26.00
11009;DHT22;5557;51.670;7.788;2023-12-28T06:27:39;9.60;26.80
11009;DHT22;5557;51.670;7.788;2023-12-28T06:30:07;9.60;26.40
11009;DHT22;5557;51.670;7.788;2023-12-28T06:32:35;9.60;24.80
11009;DHT22;5557;51.670;7.788;2023-12-28T06:35:04;9.60;24.60
11009;DHT22;5557;51.670;7.788;2023-12-28T06:37:33;9.60;23.80
11009;DHT22;5557;51.670;7.788;2023-12-28T06:40:02;9.60;23.60
11009;DHT22;5557;51.670;7.788;2023-12-28T06:42:29;9.60;22.70
11009;DHT22;5557;51.670;7.788;2023-12-28T06:44:58;9.60;23.20
11009;DHT22;5557;51.670;7.788;2023-12-28T06:47:25;9.60;22.60
11009;DHT22;5557;51.670;7.788;2023-12-28T06:49:54;9.60;22.80
11009;DHT22;5557;51.670;7.788;2023-12-28T06:52:23;9.50;23.80
11009;DHT22;5557;51.670;7.788;2023-12-28T06:54:51;9.50;22.50
11009;DHT22;5557;51.670;7.788;2023-12-28T06:57:21;9.60;20.90
11009;DHT22;5557;51.670;7.788;2023-12-28T06:59:50;9.60;19.50
11009;DHT22;5557;51.670;7.788;2023-12-28T07:02:17;9.60;19.10
11009;DHT22;5557;51.670;7.788;2023-12-28T07:04:44;9.60;18.30
11009;DHT22;5557;51.670;7.788;2023-12-28T07:07:12;9.60;18.30
11009;DHT22;5557;51.670;7.788;2023-12-28T07:09:39;9.60;18.30
11009;DHT22;5557;51.670;7.788;2023-12-28T07:12:06;9.50;17.90
11009;DHT22;5557;51.670;7.788;2023-12-28T07:14:33;9.50;17.20
11009;DHT22;5557;51.670;7.788;2023-12-28T07:17:03;9.50;18.00
11009;DHT22;5557;51.670;7.788;2023-12-28T07:19:30;9.40;18.10
11009;DHT22;5557;51.670;7.788;2023-12-28T07:21:57;9.40;18.20
11009;DHT22;5557;51.670;7.788;2023-12-28T07:24:24;9.30;19.30
11009;DHT22;5557;51.670;7.788;2023-12-28T07:26:51;9.30;19.30
11009;DHT22;5557;51.670;7.788;2023-12-28T07:29:18;9.20;19.70
11009;DHT22;5557;51.670;7.788;2023-12-28T07:34:15;9.20;19.90
11009;DHT22;5557;51.670;7.788;2023-12-28T07:36:43;9.20;19.60
11009;DHT22;5557;51.670;7.788;2023-12-28T07:39:10;9.30;18.50
11009;DHT22;5557;51.670;7.788;2023-12-28T07:41:37;9.30;17.00
11009;DHT22;5557;51.670;7.788;2023-12-28T07:44:04;9.40;15.30
11009;DHT22;5557;51.670;7.788;2023-12-28T07:46:31;9.50;14.00
11009;DHT22;5557;51.670;7.788;2023-12-28T07:48:58;9.40;14.30
11009;DHT22;5557;51.670;7.788;2023-12-28T07:51:25;9.40;16.00
11009;DHT22;5557;51.670;7.788;2023-12-28T07:53:52;9.40;15.30
11009;DHT22;5557;51.670;7.788;2023-12-28T07:56:19;9.40;15.00
11009;DHT22;5557;51.670;7.788;2023-12-28T07:58:46;9.40;14.80
11009;DHT22;5557;51.670;7.788;2023-12-28T08:01:13;9.40;15.60
11009;DHT22;5557;51.670;7.788;2023-12-28T08:03:41;9.40;14.80
11009;DHT22;5557;51.670;7.788;2023-12-28T08:06:09;9.40;15.20
11009;DHT22;5557;51.670;7.788;2023-12-28T08:08:39;9.40;13.90
11009;DHT22;5557;51.670;7.788;2023-12-28T08:11:07;9.50;13.70
11009;DHT22;5557;51.670;7.788;2023-12-28T08:13:34;9.50;13.70
11009;DHT22;5557;51.670;7.788;2023-12-28T08:16:01;9.40;14.30
11009;DHT22;5557;51.670;7.788;2023-12-28T08:18:29;9.40;13.90
11009;DHT22;5557;51.670;7.788;2023-12-28T08:20:57;9.40;13.90
11009;DHT22;5557;51.670;7.788;2023-12-28T08:23:24;9.50;12.90
11009;DHT22;5557;51.670;7.788;2023-12-28T08:25:51;9.50;11.50
11009;DHT22;5557;51.670;7.788;2023-12-28T08:28:18;9.50;13.00
11009;DHT22;5557;51.670;7.788;2023-12-28T08:30:45;9.50;12.40
11009;DHT22;5557;51.670;7.788;2023-12-28T08:33:13;9.50;12.00
11009;DHT22;5557;51.670;7.788;2023-12-28T08:35:43;9.40;12.60
11009;DHT22;5557;51.670;7.788;2023-12-28T08:38:13;9.40;13.70
11009;DHT22;5557;51.670;7.788;2023-12-28T08:40:40;9.50;11.90
11009;DHT22;5557;51.670;7.788;2023-12-28T08:43:07;9.70;11.30
11009;DHT22;5557;51.670;7.788;2023-12-28T08:45:34;9.80;9.60
11009;DHT22;5557;51.670;7.788;2023-12-28T08:48:03;9.90;6.00
11009;DHT22;5557;51.670;7.788;2023-12-28T08:50:31;10.00;5.40
11009;DHT22;5557;51.670;7.788;2023-12-28T08:52:58;10.10;4.00
11009;DHT22;5557;51.670;7.788;2023-12-28T08:55:25;10.30;1.00
11009;DHT22;5557;51.670;7.788;2023-12-28T08:57:52;10.50;1.00
11009;DHT22;5557;51.670;7.788;2023-12-28T09:00:20;10.90;1.00
11009;DHT22;5557;51.670;7.788;2023-12-28T09:02:47;11.00;1.00
11009;DHT22;5557;51.670;7.788;2023-12-28T09:05:14;11.60;1.00
11009;DHT22;5557;51.670;7.788;2023-12-28T09:07:41;11.60;1.00
11009;DHT22;5557;51.670;7.788;2023-12-28T09:10:11;11.90;1.00
11009;DHT22;5557;51.670;7.788;2023-12-28T09:12:40;11.80;1.00
11009;DHT22;5557;51.670;7.788;2023-12-28T09:15:08;11.50;1.00
11009;DHT22;5557;51.670;7.788;2023-12-28T09:17:35;11.40;1.00
11009;DHT22;5557;51.670;7.788;2023-12-28T09:20:03;11.20;1.00
11009;DHT22;5557;51.670;7.788;2023-12-28T09:22:33;11.00;1.00
11009;DHT22;5557;51.670;7.788;2023-12-28T09:25:00;11.00;1.00
11009;DHT22;5557;51.670;7.788;2023-12-28T09:27:27;10.90;1.00
11009;DHT22;5557;51.670;7.788;2023-12-28T09:29:54;10.90;1.00
11009;DHT22;5557;51.670;7.788;2023-12-28T09:32:21;10.90;1.00
11009;DHT22;5557;51.670;7.788;2023-12-28T09:34:49;10.90;1.00
11009;DHT22;5557;51.670;7.788;2023-12-28T09:37:16;10.90;1.00
11009;DHT22;5557;51.670;7.788;2023-12-28T09:39:43;10.90;1.00
11009;DHT22;5557;51.670;7.788;2023-12-28T09:42:20;10.80;1.00
11009;DHT22;5557;51.670;7.788;2023-12-28T09:44:51;10.80;1.00
11009;DHT22;5557;51.670;7.788;2023-12-28T09:47:18;10.80;1.00
11009;DHT22;5557;51.670;7.788;2023-12-28T09:49:47;10.80;1.00
11009;DHT22;5557;51.670;7.788;2023-12-28T09:52:14;10.80;1.00
11009;DHT22;5557;51.670;7.788;2023-12-28T09:54:41;10.80;1.00
11009;DHT22;5557;51.670;7.788;2023-12-28T09:57:09;10.90;1.00
11009;DHT22;5557;51.670;7.788;2023-12-28T09:59:38;10.90;1.00
11009;DHT22;5557;51.670;7.788;2023-12-28T10:02:05;10.90;1.00
11009;DHT22;5557;51.670;7.788;2023-12-28T10:04:32;10.90;1.00
11009;DHT22;5557;51.670;7.788;2023-12-28T10:06:59;10.90;1.00
11009;DHT22;5557;51.670;7.788;2023-12-28T10:09:27;10.90;1.00
11009;DHT22;5557;51.670;7.788;2023-12-28T10:11:54;11.00;1.00
11009;DHT22;5557;51.670;7.788;2023-12-28T10:14:22;11.00;1.00
11009;DHT22;5557;51.670;7.788;2023-12-28T10:16:50;11.00;1.00
11009;DHT22;5557;51.670;7.788;2023-12-28T10:19:22;11.00;1.00
11009;DHT22;5557;51.670;7.788;2023-12-28T10:21:50;11.00;1.00
11009;DHT22;5557;51.670;7.788;2023-12-28T10:24:17;11.10;1.00
11009;DHT22;5557;51.670;7.788;2023-12-28T10:26:44;11.10;1.00
11009;DHT22;5557;51.670;7.788;2023-12-28T10:29:11;11.10;1.00
11009;DHT22;5557;51.670;7.788;2023-12-28T10:31:42;11.10;1.00
11009;DHT22;5557;51.670;7.788;2023-12-28T10:34:11;11.10;1.00
11009;DHT22;5557;51.670;7.788;2023-12-28T10:36:40;11.20;1.00
11009;DHT22;5557;51.670;7.788;2023-12-28T10:39:11;11.20;1.00
11009;DHT22;5557;51.670;7.788;2023-12-28T10:41:44;11.20;1.00
11009;DHT22;5557;51.670;7.788;2023-12-28T10:44:17;11.20;1.00
11009;DHT22;5557;51.670;7.788;2023-12-28T10:46:46;11.20;1.00
11009;DHT22;5557;51.670;7.788;2023-12-28T10:49:17;11.20;1.00
11009;DHT22;5557;51.670;7.788;2023-12-28T10:51:45;11.10;1.00
11009;DHT22;5557;51.670;7.788;2023-12-28T10:56:10;11.10;1.00
11009;DHT22;5557;51.670;7.788;2023-12-28T10:57:29;11.10;1.00
11009;DHT22;5557;51.670;7.788;2023-12-28T11:00:25;11.20;1.00
11009;DHT22;5557;51.670;7.788;2023-12-28T11:02:58;11.10;1.00
11009;DHT22;5557;51.670;7.788;2023-12-28T11:05:31;11.10;1.00
11009;DHT22;5557;51.670;7.788;2023-12-28T11:07:59;11.10;1.00
11009;DHT22;5557;51.670;7.788;2023-12-28T11:10:28;11.10;1.00
11009;DHT22;5557;51.670;7.788;2023-12-28T11:12:57;11.10;1.00
11009;DHT22;5557;51.670;7.788;2023-12-28T11:15:26;11.10;1.00
11009;DHT22;5557;51.670;7.788;2023-12-28T11:17:53;11.20;1.00
11009;DHT22;5557;51.670;7.788;2023-12-28T11:20:20;11.20;1.00
11009;DHT22;5557;51.670;7.788;2023-12-28T11:22:48;11.20;1.00
11009;DHT22;5557;51.670;7.788;2023-12-28T11:25:17;11.20;1.00
11009;DHT22;5557;51.670;7.788;2023-12-28T11:27:46;11.30;1.00
11009;DHT22;5557;51.670;7.788;2023-12-28T11:30:13;11.40;1.00
11009;DHT22;5557;51.670;7.788;2023-12-28T11:32:42;11.40;1.00
11009;DHT22;5557;51.670;7.788;2023-12-28T11:35:14;11.40;1.00
11009;DHT22;5557;51.670;7.788;2023-12-28T11:37:46;11.40;1.00
11009;DHT22;5557;51.670;7.788;2023-12-28T11:40:18;11.40;1.00
11009;DHT22;5557;51.670;7.788;2023-12-28T11:42:53;11.40;1.00
11009;DHT22;5557;51.670;7.788;2023-12-28T11:45:22;11.40;1.00
11009;DHT22;5557;51.670;7.788;2023-12-28T11:47:59;11.40;1.00
11009;DHT22;5557;51.670;7.788;2023-12-28T11:50:28;11.40;1.00
11009;DHT22;5557;51.670;7.788;2023-12-28T11:52:55;11.40;1.00
11009;DHT22;5557;51.670;7.788;2023-12-28T11:55:22;11.40;1.00
11009;DHT22;5557;51.670;7.788;2023-12-28T11:57:50;11.40;1.00
11009;DHT22;5557;51.670;7.788;2023-12-28T12:00:18;11.40;1.00
11009;DHT22;5557;51.670;7.788;2023-12-28T12:02:47;11.40;1.00
11009;DHT22;5557;51.670;7.788;2023-12-28T12:05:15;11.40;1.00
11009;DHT22;5557;51.670;7.788;2023-12-28T12:07:42;11.50;1.00
11009;DHT22;5557;51.670;7.788;2023-12-28T12:10:14;11.50;1.00
11009;DHT22;5557;51.670;7.788;2023-12-28T12:12:41;11.50;1.00
11009;DHT22;5557;51.670;7.788;2023-12-28T12:15:09;11.60;1.00
11009;DHT22;5557;51.670;7.788;2023-12-28T12:17:37;11.60;1.00
11009;DHT22;5557;51.670;7.788;2023-12-28T12:20:05;11.60;1.00
11009;DHT22;5557;51.670;7.788;2023-12-28T12:22:33;11.60;1.00
11009;DHT22;5557;51.670;7.788;2023-12-28T12:25:00;11.70;1.00
11009;DHT22;5557;51.670;7.788;2023-12-28T12:27:31;11.70;1.00
11009;DHT22;5557;51.670;7.788;2023-12-28T12:29:58;11.70;1.00
11009;DHT22;5557;51.670;7.788;2023-12-28T12:32:27;11.70;1.00
11009;DHT22;5557;51.670;7.788;2023-12-28T12:34:55;11.70;1.00
11009;DHT22;5557;51.670;7.788;2023-12-28T12:37:23;11.80;1.00
11009;DHT22;5557;51.670;7.788;2023-12-28T12:39:50;11.70;1.00
11009;DHT22;5557;51.670;7.788;2023-12-28T12:42:17;11.70;1.00
11009;DHT22;5557;51.670;7.788;2023-12-28T12:44:44;11.70;1.00
11009;DHT22;5557;51.670;7.788;2023-12-28T12:47:13;11.70;1.00
11009;DHT22;5557;51.670;7.788;2023-12-28T12:49:40;11.70;1.00
11009;DHT22;5557;51.670;7.788;2023-12-28T12:52:10;11.70;1.00
11009;DHT22;5557;51.670;7.788;2023-12-28T12:54:37;11.80;1.00
11009;DHT22;5557;51.670;7.788;2023-12-28T12:57:04;11.80;1.00
11009;DHT22;5557;51.670;7.788;2023-12-28T12:59:32;11.80;1.00
11009;DHT22;5557;51.670;7.788;2023-12-28T13:02:00;11.80;1.00
11009;DHT22;5557;51.670;7.788;2023-12-28T13:04:27;11.80;1.00
11009;DHT22;5557;51.670;7.788;2023-12-28T13:06:55;11.80;1.00
11009;DHT22;5557;51.670;7.788;2023-12-28T13:09:22;11.80;1.00
11009;DHT22;5557;51.670;7.788;2023-12-28T13:11:49;11.80;1.00
11009;DHT22;5557;51.670;7.788;2023-12-28T13:14:18;11.80;1.00
11009;DHT22;5557;51.670;7.788;2023-12-28T13:16:45;11.80;1.00
11009;DHT22;5557;51.670;7.788;2023-12-28T13:19:15;11.80;1.00
11009;DHT22;5557;51.670;7.788;2023-12-28T13:21:42;11.70;1.00
11009;DHT22;5557;51.670;7.788;2023-12-28T13:24:10;11.70;1.00
11009;DHT22;5557;51.670;7.788;2023-12-28T13:26:38;11.70;1.00
11009;DHT22;5557;51.670;7.788;2023-12-28T13:29:05;11.70;1.00
11009;DHT22;5557;51.670;7.788;2023-12-28T13:31:32;11.70;1.00
11009;DHT22;5557;51.670;7.788;2023-12-28T13:34:00;11.70;1.00
11009;DHT22;5557;51.670;7.788;2023-12-28T13:36:28;11.70;1.00
11009;DHT22;5557;51.670;7.788;2023-12-28T13:38:55;11.60;1.00
11009;DHT22;5557;51.670;7.788;2023-12-28T13:41:22;11.60;1.00
11009;DHT22;5557;51.670;7.788;2023-12-28T13:43:49;11.60;1.00
11009;DHT22;5557;51.670;7.788;2023-12-28T13:46:16;11.60;1.00
11009;DHT22;5557;51.670;7.788;2023-12-28T13:48:43;11.60;1.00
11009;DHT22;5557;51.670;7.788;2023-12-28T13:51:10;11.60;1.00
11009;DHT22;5557;51.670;7.788;2023-12-28T13:53:37;11.60;1.00
11009;DHT22;5557;51.670;7.788;2023-12-28T13:56:08;11.50;1.00
11009;DHT22;5557;51.670;7.788;2023-12-28T13:58:38;11.50;1.00
11009;DHT22;5557;51.670;7.788;2023-12-28T14:01:05;11.50;1.00
11009;DHT22;5557;51.670;7.788;2023-12-28T14:03:32;11.50;1.00
11009;DHT22;5557;51.670;7.788;2023-12-28T14:06:00;11.50;1.00
11009;DHT22;5557;51.670;7.788;2023-12-28T14:08:27;11.40;1.00
11009;DHT22;5557;51.670;7.788;2023-12-28T14:10:54;11.40;1.00
11009;DHT22;5557;51.670;7.788;2023-12-28T14:13:21;11.50;1.00
11009;DHT22;5557;51.670;7.788;2023-12-28T14:15:48;11.40;1.00
11009;DHT22;5557;51.670;7.788;2023-12-28T14:18:16;11.40;1.00
11009;DHT22;5557;51.670;7.788;2023-12-28T14:20:43;11.30;1.00
11009;DHT22;5557;51.670;7.788;2023-12-28T14:23:11;11.30;1.00
11009;DHT22;5557;51.670;7.788;2023-12-28T14:25:39;11.30;1.00
11009;DHT22;5557;51.670;7.788;2023-12-28T14:28:07;11.30;1.00
11009;DHT22;5557;51.670;7.788;2023-12-28T14:30:35;11.20;1.00
11009;DHT22;5557;51.670;7.788;2023-12-28T14:33:05;11.20;1.00
11009;DHT22;5557;51.670;7.788;2023-12-28T14:35:36;11.20;1.00
11009;DHT22;5557;51.670;7.788;2023-12-28T14:38:07;11.20;1.00
11009;DHT22;5557;51.670;7.788;2023-12-28T14:40:35;11.10;1.00
11009;DHT22;5557;51.670;7.788;2023-12-28T14:43:01;11.10;1.00
11009;DHT22;5557;51.670;7.788;2023-12-28T14:45:29;11.10;1.00
11009;DHT22;5557;51.670;7.788;2023-12-28T14:47:56;11.00;1.00
11009;DHT22;5557;51.670;7.788;2023-12-28T14:50:24;11.00;1.00
11009;DHT22;5557;51.670;7.788;2023-12-28T14:52:50;11.00;1.00
11009;DHT22;5557;51.670;7.788;2023-12-28T14:55:17;10.90;1.00
11009;DHT22;5557;51.670;7.788;2023-12-28T14:57:44;10.90;1.00
11009;DHT22;5557;51.670;7.788;2023-12-28T15:00:12;11.00;1.00
11009;DHT22;5557;51.670;7.788;2023-12-28T15:02:39;11.00;1.00
11009;DHT22;5557;51.670;7.788;2023-12-28T15:05:06;11.00;1.00
11009;DHT22;5557;51.670;7.788;2023-12-28T15:07:35;11.00;1.00
11009;DHT22;5557;51.670;7.788;2023-12-28T15:10:02;11.00;1.00
11009;DHT22;5557;51.670;7.788;2023-12-28T15:12:30;11.00;1.00
11009;DHT22;5557;51.670;7.788;2023-12-28T15:14:57;11.00;1.00
11009;DHT22;5557;51.670;7.788;2023-12-28T15:17:25;11.00;1.00
11009;DHT22;5557;51.670;7.788;2023-12-28T15:19:52;10.90;1.00
11009;DHT22;5557;51.670;7.788;2023-12-28T15:22:20;10.90;1.00
11009;DHT22;5557;51.670;7.788;2023-12-28T15:24:47;10.90;1.00
11009;DHT22;5557;51.670;7.788;2023-12-28T15:27:14;10.90;1.00
11009;DHT22;5557;51.670;7.788;2023-12-28T15:29:41;10.90;1.00
11009;DHT22;5557;51.670;7.788;2023-12-28T15:32:09;10.80;1.00
11009;DHT22;5557;51.670;7.788;2023-12-28T15:34:39;10.80;1.00
11009;DHT22;5557;51.670;7.788;2023-12-28T15:37:11;10.80;1.00
11009;DHT22;5557;51.670;7.788;2023-12-28T15:39:39;10.80;1.00
11009;DHT22;5557;51.670;7.788;2023-12-28T15:42:08;10.80;1.00
11009;DHT22;5557;51.670;7.788;2023-12-28T15:44:36;10.80;1.00
11009;DHT22;5557;51.670;7.788;2023-12-28T15:47:03;10.80;1.00
11009;DHT22;5557;51.670;7.788;2023-12-28T15:49:30;10.80;1.00
11009;DHT22;5557;51.670;7.788;2023-12-28T15:51:58;10.70;1.00
11009;DHT22;5557;51.670;7.788;2023-12-28T15:54:26;10.70;1.00
11009;DHT22;5557;51.670;7.788;2023-12-28T15:56:55;10.60;1.00
11009;DHT22;5557;51.670;7.788;2023-12-28T15:59:23;10.70;1.00
11009;DHT22;5557;51.670;7.788;2023-12-28T16:01:50;10.70;1.00
11009;DHT22;5557;51.670;7.788;2023-12-28T16:04:17;10.60;1.00
11009;DHT22;5557;51.670;7.788;2023-12-28T16:06:44;10.50;1.00
11009;DHT22;5557;51.670;7.788;2023-12-28T16:09:12;10.50;1.00
11009;DHT22;5557;51.670;7.788;2023-12-28T16:11:39;10.50;1.00
11009;DHT22;5557;51.670;7.788;2023-12-28T16:14:07;10.40;1.00
11009;DHT22;5557;51.670;7.788;2023-12-28T16:16:34;10.40;1.00